sensor_id;sensor_type;location;lat;lon;timestamp;temperature;humidity
75786;DHT22;64402;44.708;37.644;2023-03-05T00:00:16;8.18;90.98
75786;DHT22;64402;44.708;37.644;2023-03-05T00:02:43;8.20;91.15
75786;DHT22;64402;44.708;37.644;2023-03-05T00:05:10;8.22;91.18
75786;DHT22;64402;44.708;37.644;2023-03-05T00:07:36;8.21;90.95
75786;DHT22;64402;44.708;37.644;2023-03-05T00:10:04;8.20;91.33
75786;DHT22;64402;44.708;37.644;2023-03-05T00:12:30;8.17;92.48
75786;DHT22;64402;44.708;37.644;2023-03-05T00:14:57;8.16;93.53
75786;DHT22;64402;44.708;37.644;2023-03-05T00:17:23;8.13;93.94
75786;DHT22;64402;44.708;37.644;2023-03-05T00:19:49;8.11;93.95
75786;DHT22;64402;44.708;37.644;2023-03-05T00:22:16;8.09;94.13
75786;DHT22;64402;44.708;37.644;2023-03-05T00:24:42;8.07;93.46
75786;DHT22;64402;44.708;37.644;2023-03-05T00:27:09;8.11;93.15
75786;DHT22;64402;44.708;37.644;2023-03-05T00:29:35;8.09;92.81
75786;DHT22;64402;44.708;37.644;2023-03-05T00:32:01;8.12;92.90
75786;DHT22;64402;44.708;37.644;2023-03-05T00:34:28;8.13;92.79
75786;DHT22;64402;44.708;37.644;2023-03-05T00:36:54;8.05;94.27
75786;DHT22;64402;44.708;37.644;2023-03-05T00:39:21;7.99;94.52
75786;DHT22;64402;44.708;37.644;2023-03-05T00:41:47;7.98;95.88
75786;DHT22;64402;44.708;37.644;2023-03-05T00:44:14;7.94;96.36
75786;DHT22;64402;44.708;37.644;2023-03-05T00:46:40;7.96;96.42
75786;DHT22;64402;44.708;37.644;2023-03-05T00:49:07;7.93;96.16
75786;DHT22;64402;44.708;37.644;2023-03-05T00:51:33;7.94;96.39
75786;DHT22;64402;44.708;37.644;2023-03-05T00:54:00;7.96;96.70
75786;DHT22;64402;44.708;37.644;2023-03-05T00:56:26;7.99;96.88
75786;DHT22;64402;44.708;37.644;2023-03-05T00:58:53;8.03;96.97
75786;DHT22;64402;44.708;37.644;2023-03-05T01:01:19;8.03;96.94
75786;DHT22;64402;44.708;37.644;2023-03-05T01:03:46;7.99;96.79
75786;DHT22;64402;44.708;37.644;2023-03-05T01:06:13;7.92;96.71
75786;DHT22;64402;44.708;37.644;2023-03-05T01:08:42;7.89;97.22
75786;DHT22;64402;44.708;37.644;2023-03-05T01:11:09;7.81;96.62
75786;DHT22;64402;44.708;37.644;2023-03-05T01:13:36;7.83;97.94
75786;DHT22;64402;44.708;37.644;2023-03-05T01:16:02;7.84;98.25
75786;DHT22;64402;44.708;37.644;2023-03-05T01:18:29;7.86;98.43
75786;DHT22;64402;44.708;37.644;2023-03-05T01:20:55;7.84;98.47
75786;DHT22;64402;44.708;37.644;2023-03-05T01:23:22;7.85;98.53
75786;DHT22;64402;44.708;37.644;2023-03-05T01:25:56;7.86;98.90
75786;DHT22;64402;44.708;37.644;2023-03-05T01:28:23;7.85;99.16
75786;DHT22;64402;44.708;37.644;2023-03-05T01:30:49;7.86;99.19
75786;DHT22;64402;44.708;37.644;2023-03-05T01:33:16;7.88;99.22
75786;DHT22;64402;44.708;37.644;2023-03-05T01:35:45;7.79;98.47
75786;DHT22;64402;44.708;37.644;2023-03-05T01:38:13;7.81;98.19
75786;DHT22;64402;44.708;37.644;2023-03-05T01:40:40;7.81;98.30
75786;DHT22;64402;44.708;37.644;2023-03-05T01:45:37;7.79;97.90
75786;DHT22;64402;44.708;37.644;2023-03-05T01:48:04;7.76;96.88
75786;DHT22;64402;44.708;37.644;2023-03-05T01:50:31;7.77;97.46
75786;DHT22;64402;44.708;37.644;2023-03-05T01:53:01;7.77;97.49
75786;DHT22;64402;44.708;37.644;2023-03-05T01:55:30;7.79;97.54
75786;DHT22;64402;44.708;37.644;2023-03-05T01:58:05;7.84;96.69
75786;DHT22;64402;44.708;37.644;2023-03-05T02:00:37;7.88;97.41
75786;DHT22;64402;44.708;37.644;2023-03-05T02:03:06;7.91;97.27
75786;DHT22;64402;44.708;37.644;2023-03-05T02:05:36;7.91;96.68
75786;DHT22;64402;44.708;37.644;2023-03-05T02:08:08;7.93;97.02
75786;DHT22;64402;44.708;37.644;2023-03-05T02:10:41;7.96;97.29
75786;DHT22;64402;44.708;37.644;2023-03-05T02:13:09;7.92;95.57
75786;DHT22;64402;44.708;37.644;2023-03-05T02:15:37;7.99;96.85
75786;DHT22;64402;44.708;37.644;2023-03-05T02:18:05;8.04;97.18
75786;DHT22;64402;44.708;37.644;2023-03-05T02:23:20;8.08;96.87
75786;DHT22;64402;44.708;37.644;2023-03-05T02:25:47;8.05;96.48
75786;DHT22;64402;44.708;37.644;2023-03-05T02:28:24;8.09;96.39
75786;DHT22;64402;44.708;37.644;2023-03-05T02:30:51;8.14;96.30
75786;DHT22;64402;44.708;37.644;2023-03-05T02:33:18;8.16;96.44
75786;DHT22;64402;44.708;37.644;2023-03-05T02:35:45;8.18;96.38
75786;DHT22;64402;44.708;37.644;2023-03-05T02:38:13;8.17;96.04
75786;DHT22;64402;44.708;37.644;2023-03-05T02:40:40;8.15;94.82
75786;DHT22;64402;44.708;37.644;2023-03-05T02:43:06;8.20;95.78
75786;DHT22;64402;44.708;37.644;2023-03-05T02:45:32;8.20;95.76
75786;DHT22;64402;44.708;37.644;2023-03-05T02:47:59;8.22;95.75
75786;DHT22;64402;44.708;37.644;2023-03-05T02:50:26;8.26;95.05
75786;DHT22;64402;44.708;37.644;2023-03-05T02:52:53;8.31;94.59
75786;DHT22;64402;44.708;37.644;2023-03-05T02:55:19;8.34;92.27
75786;DHT22;64402;44.708;37.644;2023-03-05T02:57:46;8.41;91.48
75786;DHT22;64402;44.708;37.644;2023-03-05T03:00:12;8.43;90.56
75786;DHT22;64402;44.708;37.644;2023-03-05T03:02:39;8.44;89.52
75786;DHT22;64402;44.708;37.644;2023-03-05T03:05:05;8.46;89.21
75786;DHT22;64402;44.708;37.644;2023-03-05T03:07:34;8.49;88.46
75786;DHT22;64402;44.708;37.644;2023-03-05T03:10:04;8.52;88.92
75786;DHT22;64402;44.708;37.644;2023-03-05T03:12:31;8.53;89.44
75786;DHT22;64402;44.708;37.644;2023-03-05T03:15:01;8.52;88.89
75786;DHT22;64402;44.708;37.644;2023-03-05T03:17:27;8.53;89.70
75786;DHT22;64402;44.708;37.644;2023-03-05T03:19:53;8.53;89.35
75786;DHT22;64402;44.708;37.644;2023-03-05T03:22:19;8.56;88.97
75786;DHT22;64402;44.708;37.644;2023-03-05T03:24:46;8.53;88.92
75786;DHT22;64402;44.708;37.644;2023-03-05T03:27:12;8.57;88.54
75786;DHT22;64402;44.708;37.644;2023-03-05T03:29:38;8.58;88.43
75786;DHT22;64402;44.708;37.644;2023-03-05T03:32:04;8.58;88.22
75786;DHT22;64402;44.708;37.644;2023-03-05T03:34:31;8.58;88.57
75786;DHT22;64402;44.708;37.644;2023-03-05T03:36:57;8.59;88.03
75786;DHT22;64402;44.708;37.644;2023-03-05T03:39:23;8.60;88.34
75786;DHT22;64402;44.708;37.644;2023-03-05T03:41:51;8.61;88.43
75786;DHT22;64402;44.708;37.644;2023-03-05T03:44:19;8.58;88.22
75786;DHT22;64402;44.708;37.644;2023-03-05T03:46:47;8.60;88.28
75786;DHT22;64402;44.708;37.644;2023-03-05T03:49:19;8.60;88.55
75786;DHT22;64402;44.708;37.644;2023-03-05T03:51:46;8.57;88.21
75786;DHT22;64402;44.708;37.644;2023-03-05T03:54:13;8.58;87.49
75786;DHT22;64402;44.708;37.644;2023-03-05T03:56:39;8.59;86.58
75786;DHT22;64402;44.708;37.644;2023-03-05T03:59:06;8.64;86.55
75786;DHT22;64402;44.708;37.644;2023-03-05T04:01:32;8.63;87.44
75786;DHT22;64402;44.708;37.644;2023-03-05T04:03:58;8.64;88.21
75786;DHT22;64402;44.708;37.644;2023-03-05T04:06:24;8.65;87.60
75786;DHT22;64402;44.708;37.644;2023-03-05T04:08:50;8.65;87.79
75786;DHT22;64402;44.708;37.644;2023-03-05T04:11:17;8.65;88.26
75786;DHT22;64402;44.708;37.644;2023-03-05T04:13:47;8.67;87.76
75786;DHT22;64402;44.708;37.644;2023-03-05T04:16:14;8.65;88.22
75786;DHT22;64402;44.708;37.644;2023-03-05T04:18:41;8.66;87.73
75786;DHT22;64402;44.708;37.644;2023-03-05T04:21:09;8.65;87.85
75786;DHT22;64402;44.708;37.644;2023-03-05T04:23:35;8.65;87.17
75786;DHT22;64402;44.708;37.644;2023-03-05T04:26:01;8.65;87.38
75786;DHT22;64402;44.708;37.644;2023-03-05T04:28:27;8.64;87.38
75786;DHT22;64402;44.708;37.644;2023-03-05T04:30:53;8.63;87.31
75786;DHT22;64402;44.708;37.644;2023-03-05T04:33:20;8.63;87.04
75786;DHT22;64402;44.708;37.644;2023-03-05T04:35:46;8.65;86.59
75786;DHT22;64402;44.708;37.644;2023-03-05T04:38:12;8.64;86.89
75786;DHT22;64402;44.708;37.644;2023-03-05T04:40:39;8.63;86.80
75786;DHT22;64402;44.708;37.644;2023-03-05T04:43:05;8.65;86.90
75786;DHT22;64402;44.708;37.644;2023-03-05T04:45:32;8.64;85.44
75786;DHT22;64402;44.708;37.644;2023-03-05T04:47:58;8.68;85.77
75786;DHT22;64402;44.708;37.644;2023-03-05T04:50:25;8.70;85.77
75786;DHT22;64402;44.708;37.644;2023-03-05T04:52:51;8.71;85.76
75786;DHT22;64402;44.708;37.644;2023-03-05T04:55:17;8.71;86.24
75786;DHT22;64402;44.708;37.644;2023-03-05T04:57:44;8.72;85.85
75786;DHT22;64402;44.708;37.644;2023-03-05T05:00:12;8.72;86.09
75786;DHT22;64402;44.708;37.644;2023-03-05T05:02:41;8.70;85.96
75786;DHT22;64402;44.708;37.644;2023-03-05T05:05:09;8.66;86.48
75786;DHT22;64402;44.708;37.644;2023-03-05T05:07:36;8.66;86.92
75786;DHT22;64402;44.708;37.644;2023-03-05T05:10:03;8.66;87.57
75786;DHT22;64402;44.708;37.644;2023-03-05T05:12:30;8.65;87.89
75786;DHT22;64402;44.708;37.644;2023-03-05T05:14:59;8.60;87.30
75786;DHT22;64402;44.708;37.644;2023-03-05T05:17:26;8.61;87.72
75786;DHT22;64402;44.708;37.644;2023-03-05T05:19:56;8.62;87.70
75786;DHT22;64402;44.708;37.644;2023-03-05T05:22:22;8.63;86.78
75786;DHT22;64402;44.708;37.644;2023-03-05T05:24:48;8.68;86.27
75786;DHT22;64402;44.708;37.644;2023-03-05T05:27:15;8.74;85.93
75786;DHT22;64402;44.708;37.644;2023-03-05T05:29:41;8.76;86.16
75786;DHT22;64402;44.708;37.644;2023-03-05T05:32:07;8.79;85.21
75786;DHT22;64402;44.708;37.644;2023-03-05T05:34:35;8.81;84.82
75786;DHT22;64402;44.708;37.644;2023-03-05T05:37:01;8.87;84.32
75786;DHT22;64402;44.708;37.644;2023-03-05T05:39:27;8.96;81.41
75786;DHT22;64402;44.708;37.644;2023-03-05T05:41:53;9.01;81.84
75786;DHT22;64402;44.708;37.644;2023-03-05T05:44:19;9.01;82.55
75786;DHT22;64402;44.708;37.644;2023-03-05T05:46:45;9.03;81.88
75786;DHT22;64402;44.708;37.644;2023-03-05T05:49:12;9.02;82.24
75786;DHT22;64402;44.708;37.644;2023-03-05T05:51:38;8.98;83.26
75786;DHT22;64402;44.708;37.644;2023-03-05T05:54:04;8.97;82.65
75786;DHT22;64402;44.708;37.644;2023-03-05T05:56:30;8.98;83.04
75786;DHT22;64402;44.708;37.644;2023-03-05T05:58:57;9.02;82.83
75786;DHT22;64402;44.708;37.644;2023-03-05T06:01:26;9.01;83.49
75786;DHT22;64402;44.708;37.644;2023-03-05T06:03:53;9.00;83.76
75786;DHT22;64402;44.708;37.644;2023-03-05T06:06:21;8.97;84.21
75786;DHT22;64402;44.708;37.644;2023-03-05T06:08:48;8.97;84.58
75786;DHT22;64402;44.708;37.644;2023-03-05T06:11:14;8.94;84.20
75786;DHT22;64402;44.708;37.644;2023-03-05T06:13:41;8.95;85.22
75786;DHT22;64402;44.708;37.644;2023-03-05T06:16:11;8.97;85.70
75786;DHT22;64402;44.708;37.644;2023-03-05T06:18:37;8.98;86.03
75786;DHT22;64402;44.708;37.644;2023-03-05T06:21:06;8.97;85.58
75786;DHT22;64402;44.708;37.644;2023-03-05T06:23:33;8.95;86.41
75786;DHT22;64402;44.708;37.644;2023-03-05T06:26:02;8.95;86.49
75786;DHT22;64402;44.708;37.644;2023-03-05T06:28:29;8.95;85.48
75786;DHT22;64402;44.708;37.644;2023-03-05T06:31:22;8.96;85.77
75786;DHT22;64402;44.708;37.644;2023-03-05T06:33:57;8.94;85.76
75786;DHT22;64402;44.708;37.644;2023-03-05T06:36:27;8.92;85.75
75786;DHT22;64402;44.708;37.644;2023-03-05T06:38:53;8.93;85.67
75786;DHT22;64402;44.708;37.644;2023-03-05T06:41:23;8.92;85.98
75786;DHT22;64402;44.708;37.644;2023-03-05T06:43:50;8.97;85.90
75786;DHT22;64402;44.708;37.644;2023-03-05T06:46:19;9.03;85.72
75786;DHT22;64402;44.708;37.644;2023-03-05T06:48:46;9.07;85.44
75786;DHT22;64402;44.708;37.644;2023-03-05T06:51:23;9.08;85.84
75786;DHT22;64402;44.708;37.644;2023-03-05T06:53:50;9.09;85.89
75786;DHT22;64402;44.708;37.644;2023-03-05T06:56:18;9.09;85.76
75786;DHT22;64402;44.708;37.644;2023-03-05T06:58:45;9.12;85.55
75786;DHT22;64402;44.708;37.644;2023-03-05T07:01:13;9.10;85.63
75786;DHT22;64402;44.708;37.644;2023-03-05T07:03:40;9.07;86.73
75786;DHT22;64402;44.708;37.644;2023-03-05T07:06:09;9.07;87.78
75786;DHT22;64402;44.708;37.644;2023-03-05T07:08:36;9.09;88.72
75786;DHT22;64402;44.708;37.644;2023-03-05T07:11:07;9.08;88.89
75786;DHT22;64402;44.708;37.644;2023-03-05T07:13:34;9.09;88.49
75786;DHT22;64402;44.708;37.644;2023-03-05T07:16:05;9.09;89.22
75786;DHT22;64402;44.708;37.644;2023-03-05T07:18:31;9.09;89.32
75786;DHT22;64402;44.708;37.644;2023-03-05T07:21:02;9.16;89.31
75786;DHT22;64402;44.708;37.644;2023-03-05T07:23:28;9.20;89.33
75786;DHT22;64402;44.708;37.644;2023-03-05T07:25:54;9.20;89.22
75786;DHT22;64402;44.708;37.644;2023-03-05T07:28:21;9.21;89.10
75786;DHT22;64402;44.708;37.644;2023-03-05T07:30:55;9.27;88.83
75786;DHT22;64402;44.708;37.644;2023-03-05T07:33:23;9.33;88.34
75786;DHT22;64402;44.708;37.644;2023-03-05T07:35:49;9.37;88.52
75786;DHT22;64402;44.708;37.644;2023-03-05T07:38:15;9.42;88.17
75786;DHT22;64402;44.708;37.644;2023-03-05T07:40:41;9.48;88.24
75786;DHT22;64402;44.708;37.644;2023-03-05T07:43:08;9.47;87.60
75786;DHT22;64402;44.708;37.644;2023-03-05T07:45:38;9.45;87.68
75786;DHT22;64402;44.708;37.644;2023-03-05T07:48:06;9.49;87.50
75786;DHT22;64402;44.708;37.644;2023-03-05T07:50:32;9.50;87.41
75786;DHT22;64402;44.708;37.644;2023-03-05T07:52:59;9.51;87.19
75786;DHT22;64402;44.708;37.644;2023-03-05T07:55:25;9.50;86.62
75786;DHT22;64402;44.708;37.644;2023-03-05T07:57:51;9.56;86.24
75786;DHT22;64402;44.708;37.644;2023-03-05T08:00:18;9.53;85.95
75786;DHT22;64402;44.708;37.644;2023-03-05T08:02:44;9.52;86.40
75786;DHT22;64402;44.708;37.644;2023-03-05T08:05:11;9.56;86.77
75786;DHT22;64402;44.708;37.644;2023-03-05T08:07:37;9.59;86.65
75786;DHT22;64402;44.708;37.644;2023-03-05T08:10:04;9.63;86.52
75786;DHT22;64402;44.708;37.644;2023-03-05T08:12:30;9.65;86.43
75786;DHT22;64402;44.708;37.644;2023-03-05T08:14:57;9.72;85.91
75786;DHT22;64402;44.708;37.644;2023-03-05T08:17:23;9.77;85.67
75786;DHT22;64402;44.708;37.644;2023-03-05T08:19:50;9.69;85.92
75786;DHT22;64402;44.708;37.644;2023-03-05T08:22:16;9.67;86.11
75786;DHT22;64402;44.708;37.644;2023-03-05T08:24:45;9.65;86.41
75786;DHT22;64402;44.708;37.644;2023-03-05T08:27:12;9.70;86.12
75786;DHT22;64402;44.708;37.644;2023-03-05T08:29:38;9.71;86.43
75786;DHT22;64402;44.708;37.644;2023-03-05T08:32:04;9.70;86.66
75786;DHT22;64402;44.708;37.644;2023-03-05T08:34:31;9.68;86.43
75786;DHT22;64402;44.708;37.644;2023-03-05T08:36:57;9.66;86.57
75786;DHT22;64402;44.708;37.644;2023-03-05T08:39:24;9.64;86.97
75786;DHT22;64402;44.708;37.644;2023-03-05T08:41:50;9.60;87.72
75786;DHT22;64402;44.708;37.644;2023-03-05T08:44:17;9.62;87.86
75786;DHT22;64402;44.708;37.644;2023-03-05T08:46:43;9.70;87.68
75786;DHT22;64402;44.708;37.644;2023-03-05T08:49:10;9.79;87.38
75786;DHT22;64402;44.708;37.644;2023-03-05T08:51:36;9.80;87.39
75786;DHT22;64402;44.708;37.644;2023-03-05T08:54:03;9.75;87.98
75786;DHT22;64402;44.708;37.644;2023-03-05T08:56:33;9.72;88.29
75786;DHT22;64402;44.708;37.644;2023-03-05T08:59:01;9.71;88.06
75786;DHT22;64402;44.708;37.644;2023-03-05T09:01:28;9.77;88.45
75786;DHT22;64402;44.708;37.644;2023-03-05T09:03:57;9.75;88.37
75786;DHT22;64402;44.708;37.644;2023-03-05T09:06:25;9.77;88.19
75786;DHT22;64402;44.708;37.644;2023-03-05T09:08:52;9.79;88.10
75786;DHT22;64402;44.708;37.644;2023-03-05T09:11:20;9.93;87.41
75786;DHT22;64402;44.708;37.644;2023-03-05T09:13:46;10.05;87.12
75786;DHT22;64402;44.708;37.644;2023-03-05T09:16:15;10.08;86.88
75786;DHT22;64402;44.708;37.644;2023-03-05T09:18:42;10.12;86.64
75786;DHT22;64402;44.708;37.644;2023-03-05T09:21:12;10.26;86.20
75786;DHT22;64402;44.708;37.644;2023-03-05T09:23:39;10.29;85.98
75786;DHT22;64402;44.708;37.644;2023-03-05T09:26:07;10.36;86.41
75786;DHT22;64402;44.708;37.644;2023-03-05T09:28:34;10.52;85.75
75786;DHT22;64402;44.708;37.644;2023-03-05T09:31:03;10.62;85.16
75786;DHT22;64402;44.708;37.644;2023-03-05T09:33:31;10.68;85.00
75786;DHT22;64402;44.708;37.644;2023-03-05T09:35:58;10.64;84.82
75786;DHT22;64402;44.708;37.644;2023-03-05T09:38:25;10.55;85.35
75786;DHT22;64402;44.708;37.644;2023-03-05T09:41:01;10.51;85.45
75786;DHT22;64402;44.708;37.644;2023-03-05T09:44:11;10.49;85.03
75786;DHT22;64402;44.708;37.644;2023-03-05T09:49:37;10.39;84.96
75786;DHT22;64402;44.708;37.644;2023-03-05T09:52:21;10.35;85.61
75786;DHT22;64402;44.708;37.644;2023-03-05T09:54:53;10.29;85.85
75786;DHT22;64402;44.708;37.644;2023-03-05T09:57:39;10.34;85.71
75786;DHT22;64402;44.708;37.644;2023-03-05T10:00:32;10.35;85.94
75786;DHT22;64402;44.708;37.644;2023-03-05T10:03:04;10.30;85.74
75786;DHT22;64402;44.708;37.644;2023-03-05T10:06:10;10.26;85.91
75786;DHT22;64402;44.708;37.644;2023-03-05T10:08:51;10.33;86.01
75786;DHT22;64402;44.708;37.644;2023-03-05T10:14:14;10.36;86.19
75786;DHT22;64402;44.708;37.644;2023-03-05T10:22:20;10.31;86.29
75786;DHT22;64402;44.708;37.644;2023-03-05T10:27:52;10.19;86.60
75786;DHT22;64402;44.708;37.644;2023-03-05T10:36:03;10.51;85.78
75786;DHT22;64402;44.708;37.644;2023-03-05T10:39:01;10.50;85.44
75786;DHT22;64402;44.708;37.644;2023-03-05T10:44:46;10.29;86.24
75786;DHT22;64402;44.708;37.644;2023-03-05T10:49:50;10.31;86.77
75786;DHT22;64402;44.708;37.644;2023-03-05T10:52:21;10.39;86.74
75786;DHT22;64402;44.708;37.644;2023-03-05T10:54:50;10.58;86.26
75786;DHT22;64402;44.708;37.644;2023-03-05T10:59:48;10.40;87.12
75786;DHT22;64402;44.708;37.644;2023-03-05T11:02:15;10.31;86.90
75786;DHT22;64402;44.708;37.644;2023-03-05T11:04:41;10.31;87.50
75786;DHT22;64402;44.708;37.644;2023-03-05T11:12:34;10.26;87.12
75786;DHT22;64402;44.708;37.644;2023-03-05T11:17:42;10.12;88.72
75786;DHT22;64402;44.708;37.644;2023-03-05T11:23:13;10.06;88.94
75786;DHT22;64402;44.708;37.644;2023-03-05T11:28:27;10.08;89.00
75786;DHT22;64402;44.708;37.644;2023-03-05T11:33:23;10.10;88.57
75786;DHT22;64402;44.708;37.644;2023-03-05T11:35:51;10.01;88.48
75786;DHT22;64402;44.708;37.644;2023-03-05T11:38:25;9.98;89.11
75786;DHT22;64402;44.708;37.644;2023-03-05T11:40:55;9.96;88.95
75786;DHT22;64402;44.708;37.644;2023-03-05T11:43:23;9.96;88.96
75786;DHT22;64402;44.708;37.644;2023-03-05T11:45:57;9.92;88.92
75786;DHT22;64402;44.708;37.644;2023-03-05T11:48:35;9.89;89.06
75786;DHT22;64402;44.708;37.644;2023-03-05T11:51:12;9.94;88.77
75786;DHT22;64402;44.708;37.644;2023-03-05T11:53:43;9.98;88.54
75786;DHT22;64402;44.708;37.644;2023-03-05T11:56:35;10.05;88.40
75786;DHT22;64402;44.708;37.644;2023-03-05T11:59:27;10.04;88.07
75786;DHT22;64402;44.708;37.644;2023-03-05T12:01:56;10.07;87.99
75786;DHT22;64402;44.708;37.644;2023-03-05T12:04:23;10.06;88.18
75786;DHT22;64402;44.708;37.644;2023-03-05T12:06:53;10.00;88.29
75786;DHT22;64402;44.708;37.644;2023-03-05T12:12:05;9.94;88.96
75786;DHT22;64402;44.708;37.644;2023-03-05T12:14:41;9.90;88.86
75786;DHT22;64402;44.708;37.644;2023-03-05T12:23:19;9.90;88.80
75786;DHT22;64402;44.708;37.644;2023-03-05T12:28:55;9.86;89.23
75786;DHT22;64402;44.708;37.644;2023-03-05T12:31:39;9.85;89.31
75786;DHT22;64402;44.708;37.644;2023-03-05T12:34:35;9.81;89.28
75786;DHT22;64402;44.708;37.644;2023-03-05T12:53:18;10.03;88.22
75786;DHT22;64402;44.708;37.644;2023-03-05T12:58:48;10.04;88.39
75786;DHT22;64402;44.708;37.644;2023-03-05T13:04:27;10.00;88.43
75786;DHT22;64402;44.708;37.644;2023-03-05T13:07:05;9.99;88.71
75786;DHT22;64402;44.708;37.644;2023-03-05T13:09:36;10.01;88.64
75786;DHT22;64402;44.708;37.644;2023-03-05T13:12:12;10.03;88.19
75786;DHT22;64402;44.708;37.644;2023-03-05T13:15:02;10.01;88.18
75786;DHT22;64402;44.708;37.644;2023-03-05T13:18:01;10.00;88.31
75786;DHT22;64402;44.708;37.644;2023-03-05T13:20:41;9.89;88.63
75786;DHT22;64402;44.708;37.644;2023-03-05T13:23:27;9.92;88.68
75786;DHT22;64402;44.708;37.644;2023-03-05T13:26:19;9.89;88.81
75786;DHT22;64402;44.708;37.644;2023-03-05T13:37:06;9.85;88.48
75786;DHT22;64402;44.708;37.644;2023-03-05T13:39:55;9.88;88.63
75786;DHT22;64402;44.708;37.644;2023-03-05T13:42:28;9.85;88.61
75786;DHT22;64402;44.708;37.644;2023-03-05T13:45:28;9.83;88.80
75786;DHT22;64402;44.708;37.644;2023-03-05T13:48:01;9.76;89.02
75786;DHT22;64402;44.708;37.644;2023-03-05T13:50:38;9.74;88.73
75786;DHT22;64402;44.708;37.644;2023-03-05T13:53:28;9.70;88.94
75786;DHT22;64402;44.708;37.644;2023-03-05T13:56:06;9.66;88.98
75786;DHT22;64402;44.708;37.644;2023-03-05T14:01:40;9.66;89.66
75786;DHT22;64402;44.708;37.644;2023-03-05T14:09:51;9.74;89.50
75786;DHT22;64402;44.708;37.644;2023-03-05T14:12:37;9.68;89.39
75786;DHT22;64402;44.708;37.644;2023-03-05T14:17:49;9.64;89.36
75786;DHT22;64402;44.708;37.644;2023-03-05T14:20:25;9.61;89.47
75786;DHT22;64402;44.708;37.644;2023-03-05T14:22:59;9.61;89.60
75786;DHT22;64402;44.708;37.644;2023-03-05T14:25:37;9.62;89.56
75786;DHT22;64402;44.708;37.644;2023-03-05T14:28:27;9.64;89.73
75786;DHT22;64402;44.708;37.644;2023-03-05T14:30:57;9.67;89.51
75786;DHT22;64402;44.708;37.644;2023-03-05T14:33:31;9.66;89.78
75786;DHT22;64402;44.708;37.644;2023-03-05T14:36:04;9.64;89.76
75786;DHT22;64402;44.708;37.644;2023-03-05T14:38:42;9.61;89.82
75786;DHT22;64402;44.708;37.644;2023-03-05T14:41:38;9.60;89.93
75786;DHT22;64402;44.708;37.644;2023-03-05T14:44:15;9.59;89.79
75786;DHT22;64402;44.708;37.644;2023-03-05T14:46:49;9.59;89.50
75786;DHT22;64402;44.708;37.644;2023-03-05T14:49:17;9.59;89.54
75786;DHT22;64402;44.708;37.644;2023-03-05T14:51:46;9.55;89.53
75786;DHT22;64402;44.708;37.644;2023-03-05T14:54:20;9.54;89.47
75786;DHT22;64402;44.708;37.644;2023-03-05T14:56:49;9.52;89.41
75786;DHT22;64402;44.708;37.644;2023-03-05T14:59:17;9.51;89.19
75786;DHT22;64402;44.708;37.644;2023-03-05T15:01:48;9.50;89.39
75786;DHT22;64402;44.708;37.644;2023-03-05T15:04:16;9.49;89.28
75786;DHT22;64402;44.708;37.644;2023-03-05T15:06:47;9.44;89.43
75786;DHT22;64402;44.708;37.644;2023-03-05T15:09:18;9.42;89.57
75786;DHT22;64402;44.708;37.644;2023-03-05T15:11:48;9.41;89.34
75786;DHT22;64402;44.708;37.644;2023-03-05T15:14:17;9.38;89.48
75786;DHT22;64402;44.708;37.644;2023-03-05T15:16:46;9.38;89.57
75786;DHT22;64402;44.708;37.644;2023-03-05T15:19:15;9.36;89.35
75786;DHT22;64402;44.708;37.644;2023-03-05T15:21:45;9.39;89.54
75786;DHT22;64402;44.708;37.644;2023-03-05T15:24:14;9.40;89.52
75786;DHT22;64402;44.708;37.644;2023-03-05T15:26:42;9.42;89.07
75786;DHT22;64402;44.708;37.644;2023-03-05T15:29:11;9.41;88.82
75786;DHT22;64402;44.708;37.644;2023-03-05T15:31:39;9.41;88.58
75786;DHT22;64402;44.708;37.644;2023-03-05T15:34:07;9.39;88.51
75786;DHT22;64402;44.708;37.644;2023-03-05T15:36:34;9.38;88.14
75786;DHT22;64402;44.708;37.644;2023-03-05T15:39:01;9.39;87.71
75786;DHT22;64402;44.708;37.644;2023-03-05T15:41:30;9.39;88.12
75786;DHT22;64402;44.708;37.644;2023-03-05T15:43:59;9.38;88.16
75786;DHT22;64402;44.708;37.644;2023-03-05T15:46:29;9.35;88.10
75786;DHT22;64402;44.708;37.644;2023-03-05T15:48:57;9.36;88.37
75786;DHT22;64402;44.708;37.644;2023-03-05T15:51:26;9.36;88.47
75786;DHT22;64402;44.708;37.644;2023-03-05T15:53:55;9.34;88.71
75786;DHT22;64402;44.708;37.644;2023-03-05T15:56:24;9.31;88.52
75786;DHT22;64402;44.708;37.644;2023-03-05T15:58:54;9.32;88.46
75786;DHT22;64402;44.708;37.644;2023-03-05T16:01:22;9.27;88.41
75786;DHT22;64402;44.708;37.644;2023-03-05T16:03:52;9.29;88.51
75786;DHT22;64402;44.708;37.644;2023-03-05T16:06:22;9.34;88.44
75786;DHT22;64402;44.708;37.644;2023-03-05T16:08:54;9.36;88.16
75786;DHT22;64402;44.708;37.644;2023-03-05T16:11:26;9.36;88.21
75786;DHT22;64402;44.708;37.644;2023-03-05T16:13:56;9.38;87.98
75786;DHT22;64402;44.708;37.644;2023-03-05T16:16:27;9.38;88.09
75786;DHT22;64402;44.708;37.644;2023-03-05T16:18:55;9.38;87.98
75786;DHT22;64402;44.708;37.644;2023-03-05T16:21:22;9.34;87.79
75786;DHT22;64402;44.708;37.644;2023-03-05T16:23:49;9.34;87.89
75786;DHT22;64402;44.708;37.644;2023-03-05T16:26:15;9.34;87.77
75786;DHT22;64402;44.708;37.644;2023-03-05T16:28:41;9.34;87.89
75786;DHT22;64402;44.708;37.644;2023-03-05T16:31:07;9.36;87.85
75786;DHT22;64402;44.708;37.644;2023-03-05T16:33:34;9.37;88.02
75786;DHT22;64402;44.708;37.644;2023-03-05T16:38:36;9.35;88.47
75786;DHT22;64402;44.708;37.644;2023-03-05T16:41:02;9.35;88.60
75786;DHT22;64402;44.708;37.644;2023-03-05T16:43:29;9.33;88.54
75786;DHT22;64402;44.708;37.644;2023-03-05T16:45:55;9.33;88.73
75786;DHT22;64402;44.708;37.644;2023-03-05T16:48:21;9.31;88.65
75786;DHT22;64402;44.708;37.644;2023-03-05T16:50:47;9.30;88.95
75786;DHT22;64402;44.708;37.644;2023-03-05T16:53:13;9.31;88.76
75786;DHT22;64402;44.708;37.644;2023-03-05T16:55:39;9.32;88.84
75786;DHT22;64402;44.708;37.644;2023-03-05T16:58:05;9.33;88.66
75786;DHT22;64402;44.708;37.644;2023-03-05T17:00:31;9.35;88.57
75786;DHT22;64402;44.708;37.644;2023-03-05T17:02:57;9.35;88.63
75786;DHT22;64402;44.708;37.644;2023-03-05T17:05:23;9.36;88.83
75786;DHT22;64402;44.708;37.644;2023-03-05T17:07:52;9.37;88.76
75786;DHT22;64402;44.708;37.644;2023-03-05T17:10:18;9.36;88.72
75786;DHT22;64402;44.708;37.644;2023-03-05T17:12:45;9.37;88.68
75786;DHT22;64402;44.708;37.644;2023-03-05T17:15:12;9.36;88.62
75786;DHT22;64402;44.708;37.644;2023-03-05T17:17:38;9.38;88.63
75786;DHT22;64402;44.708;37.644;2023-03-05T17:20:05;9.37;88.57
75786;DHT22;64402;44.708;37.644;2023-03-05T17:22:32;9.39;88.61
75786;DHT22;64402;44.708;37.644;2023-03-05T17:24:58;9.40;88.54
75786;DHT22;64402;44.708;37.644;2023-03-05T17:27:24;9.39;88.57
75786;DHT22;64402;44.708;37.644;2023-03-05T17:29:50;9.35;88.70